Time;durP1;ratioP1;P1;durP2;ratioP2;P2;SDS_P1;SDS_P2;PMS_P1;PMS_P2;Temp;Humidity;BMP_temperature;BMP_pressure;BME280_temperature;BME280_humidity;BME280_pressure;Samples;Min_cycle;Max_cycle;Signal;HPM_P1;HPM_P2
2022/11/24 00:01:56;;;;;;;0.40;0.40;;;21.10;40.30;;;;;;5052583;28;20196;-57
2022/11/24 00:04:26;;;;;;;1.00;0.50;;;21.20;40.40;;;;;;5061015;28;20211;-57
2022/11/24 00:06:59;;;;;;;0.60;0.40;;;21.20;40.40;;;;;;5072855;28;20195;-52
2022/11/24 00:12:21;;;;;;;0.85;0.50;;;21.20;40.50;;;;;;5070597;28;20260;-56
2022/11/24 00:14:52;;;;;;;0.70;0.38;;;21.20;40.50;;;;;;5063019;28;20188;-60
2022/11/24 00:17:23;;;;;;;0.80;0.43;;;21.30;40.60;;;;;;5058938;28;20234;-56
2022/11/24 00:19:55;;;;;;;1.23;0.30;;;21.20;41.20;;;;;;5072285;28;20555;-59
2022/11/24 00:22:27;;;;;;;1.63;0.40;;;21.30;40.60;;;;;;5067829;28;20183;-57
2022/11/24 00:24:58;;;;;;;1.42;0.60;;;21.30;40.60;;;;;;5064993;28;20191;-54
2022/11/24 00:27:29;;;;;;;0.52;0.40;;;21.30;40.60;;;;;;5071975;28;20191;-58
2022/11/24 00:30:00;;;;;;;1.65;0.40;;;21.30;40.60;;;;;;5062849;28;20195;-52
2022/11/24 00:32:31;;;;;;;2.40;0.43;;;21.40;41.30;;;;;;5063497;28;20256;-53
2022/11/24 00:35:02;;;;;;;1.75;0.55;;;21.40;40.70;;;;;;5071480;28;20191;-50
2022/11/24 00:37:34;;;;;;;1.58;0.43;;;21.40;40.70;;;;;;5071850;28;20717;-54
2022/11/24 00:40:05;;;;;;;1.23;0.50;;;21.40;40.70;;;;;;5071667;28;20190;-54
2022/11/24 00:42:36;;;;;;;0.57;0.22;;;21.40;40.70;;;;;;5060934;28;20199;-57
2022/11/24 00:45:07;;;;;;;1.40;0.43;;;21.50;40.70;;;;;;5071667;28;20199;-53
2022/11/24 00:47:38;;;;;;;1.00;0.50;;;21.50;40.70;;;;;;5071230;28;20198;-52
2022/11/24 00:50:09;;;;;;;1.02;0.40;;;21.50;40.70;;;;;;5071295;28;20191;-52
2022/11/24 00:52:42;;;;;;;1.05;0.45;;;21.50;41.40;;;;;;5069788;28;20202;-56
2022/11/24 00:55:13;;;;;;;0.90;0.35;;;21.50;40.80;;;;;;5075593;28;20676;-59
2022/11/24 00:57:43;;;;;;;1.17;0.60;;;21.60;40.80;;;;;;5071969;28;20229;-55
2022/11/24 01:00:15;;;;;;;1.88;0.60;;;21.60;40.80;;;;;;5059664;28;20686;-49
2022/11/24 01:02:46;;;;;;;0.65;0.57;;;21.60;40.80;;;;;;5051146;28;20229;-51
2022/11/24 01:05:17;;;;;;;1.00;0.50;;;21.70;40.90;;;;;;5062346;28;20190;-54
2022/11/24 01:07:49;;;;;;;0.38;0.38;;;21.70;40.80;;;;;;5070939;28;20732;-53
2022/11/24 01:10:20;;;;;;;1.70;0.60;;;21.70;40.80;;;;;;5065038;28;20684;-53
2022/11/24 01:12:51;;;;;;;0.93;0.50;;;21.70;40.80;;;;;;5070188;28;20227;-51
2022/11/24 01:15:22;;;;;;;0.73;0.40;;;21.80;40.80;;;;;;5070691;28;20199;-52
2022/11/24 01:17:53;;;;;;;0.60;0.40;;;21.80;40.70;;;;;;5070539;28;20249;-49
2022/11/24 01:20:23;;;;;;;1.58;0.50;;;21.80;40.70;;;;;;5071147;28;20639;-50
2022/11/24 01:22:56;;;;;;;1.10;0.65;;;21.80;40.70;;;;;;5070404;28;20223;-54
2022/11/24 01:25:27;;;;;;;0.85;0.32;;;21.80;40.70;;;;;;5063399;28;20191;-56
2022/11/24 01:27:57;;;;;;;0.55;0.55;;;21.90;40.80;;;;;;5059597;28;20666;-57
2022/11/24 01:30:28;;;;;;;1.17;0.50;;;21.90;40.80;;;;;;5062909;28;20252;-55
2022/11/24 01:32:59;;;;;;;1.67;0.57;;;21.90;40.80;;;;;;5070651;28;20588;-51
2022/11/24 01:35:30;;;;;;;1.60;0.47;;;21.90;40.80;;;;;;5071264;28;20187;-56
2022/11/24 01:38:03;;;;;;;1.25;0.60;;;22.00;40.80;;;;;;5069838;28;20237;-52
2022/11/24 01:40:34;;;;;;;1.20;0.50;;;22.00;40.80;;;;;;5070422;28;20190;-62
2022/11/24 01:43:15;;;;;;;1.30;0.60;;;22.00;40.80;;;;;;5070520;28;20219;-52
2022/11/24 01:45:46;;;;;;;1.10;0.70;;;22.00;40.80;;;;;;5070526;28;20194;-54
2022/11/24 01:48:22;;;;;;;1.77;0.70;;;22.10;40.80;;;;;;5070317;28;20663;-50
2022/11/24 01:50:56;;;;;;;0.88;0.47;;;22.10;40.70;;;;;;5070368;28;20725;-56
2022/11/24 01:53:29;;;;;;;0.77;0.38;;;22.10;40.70;;;;;;5057136;28;20219;-52
2022/11/24 01:56:01;;;;;;;0.60;0.35;;;22.20;40.70;;;;;;5065604;28;20191;-53
2022/11/24 01:58:35;;;;;;;0.70;0.40;;;22.20;40.70;;;;;;5070963;28;20222;-56
2022/11/24 02:01:06;;;;;;;0.73;0.50;;;22.20;40.70;;;;;;5067406;28;20190;-50
2022/11/24 02:03:39;;;;;;;0.63;0.50;;;22.20;40.70;;;;;;5070536;28;20227;-63
2022/11/24 02:06:13;;;;;;;2.45;0.63;;;22.20;40.60;;;;;;5070749;28;20199;-56
2022/11/24 02:08:52;;;;;;;1.02;0.45;;;22.30;40.70;;;;;;5069239;28;20210;-56
2022/11/24 02:11:24;;;;;;;0.40;0.30;;;22.30;40.60;;;;;;5070884;28;20560;-59
2022/11/24 02:13:57;;;;;;;1.10;0.38;;;22.30;40.50;;;;;;5068837;28;20215;-61
2022/11/24 02:16:28;;;;;;;1.23;0.50;;;22.30;40.50;;;;;;5069053;28;20532;-64
2022/11/24 02:18:59;;;;;;;1.38;0.47;;;22.30;40.50;;;;;;5059315;28;20670;-53
2022/11/24 02:21:29;;;;;;;1.65;0.50;;;22.40;40.60;;;;;;5074306;28;20191;-60
2022/11/24 02:24:10;;;;;;;1.10;0.47;;;22.40;40.60;;;;;;5074422;28;20219;-50
2022/11/24 02:26:47;;;;;;;1.38;0.45;;;22.40;40.60;;;;;;5074468;28;20194;-55
2022/11/24 02:29:19;;;;;;;0.40;0.40;;;22.50;40.60;;;;;;5071089;28;20659;-63
2022/11/24 02:31:52;;;;;;;0.90;0.40;;;22.50;40.50;;;;;;5063696;28;20220;-58
2022/11/24 02:34:23;;;;;;;0.70;0.40;;;22.50;40.50;;;;;;5074547;28;20219;-60
2022/11/24 02:36:54;;;;;;;0.98;0.38;;;22.50;40.40;;;;;;5074976;28;20198;-61
2022/11/24 02:39:24;;;;;;;0.50;0.40;;;22.50;40.40;;;;;;5075210;28;20199;-62
2022/11/24 02:42:00;;;;;;;0.70;0.50;;;22.50;40.50;;;;;;5063982;28;20221;-56
2022/11/24 02:44:35;;;;;;;1.02;0.40;;;22.50;40.40;;;;;;5073804;28;20574;-63
2022/11/24 02:47:07;;;;;;;0.95;0.50;;;22.60;40.40;;;;;;5070550;28;20245;-60
2022/11/24 02:49:38;;;;;;;0.40;0.20;;;22.60;40.30;;;;;;5074172;28;20228;-59
2022/11/24 02:52:09;;;;;;;0.80;0.50;;;22.60;40.30;;;;;;5076210;28;20765;-58
2022/11/24 02:54:39;;;;;;;1.05;0.47;;;22.70;40.30;;;;;;5074083;28;20694;-62
2022/11/24 02:57:12;;;;;;;0.57;0.38;;;22.70;40.30;;;;;;5073423;28;20199;-55
2022/11/24 02:59:45;;;;;;;1.30;0.40;;;22.70;40.30;;;;;;5065095;28;20230;-55
2022/11/24 03:02:16;;;;;;;0.40;0.30;;;22.80;40.30;;;;;;5070084;28;20627;-60
2022/11/24 03:04:46;;;;;;;1.83;0.40;;;22.80;40.30;;;;;;5073928;28;20214;-63
2022/11/24 03:07:18;;;;;;;1.48;0.50;;;22.90;40.30;;;;;;5073700;28;20195;-61
2022/11/24 03:09:48;;;;;;;2.10;0.60;;;22.90;40.30;;;;;;5074164;28;20206;-57
2022/11/24 03:12:23;;;;;;;0.47;0.40;;;22.90;40.30;;;;;;5073501;28;20647;-61
2022/11/24 03:14:54;;;;;;;1.88;0.43;;;22.90;40.20;;;;;;5073871;28;20213;-52
2022/11/24 03:17:25;;;;;;;0.73;0.32;;;23.00;40.30;;;;;;5073849;28;20253;-52
2022/11/24 03:19:55;;;;;;;0.28;0.25;;;23.00;40.20;;;;;;5072871;28;20202;-60
2022/11/24 03:22:26;;;;;;;1.75;0.50;;;23.00;40.20;;;;;;5074086;28;20202;-63
2022/11/24 03:24:57;;;;;;;1.30;0.40;;;23.00;40.20;;;;;;5073540;28;20197;-62
2022/11/24 03:27:31;;;;;;;1.65;0.57;;;23.10;40.20;;;;;;5073566;28;20203;-55
2022/11/24 03:30:02;;;;;;;2.33;0.75;;;23.10;40.20;;;;;;5062960;28;20237;-55
2022/11/24 03:32:32;;;;;;;0.88;0.30;;;23.10;40.20;;;;;;5069029;28;20669;-61
2022/11/24 03:35:03;;;;;;;0.80;0.30;;;23.10;40.80;;;;;;5072094;28;20199;-60
2022/11/24 03:37:34;;;;;;;2.50;0.50;;;23.10;40.20;;;;;;5069433;28;20215;-59
2022/11/24 03:40:05;;;;;;;0.57;0.40;;;23.20;40.20;;;;;;5059598;28;20678;-57
2022/11/24 03:42:37;;;;;;;1.20;0.52;;;23.20;40.20;;;;;;5072339;28;20198;-52
2022/11/24 03:45:09;;;;;;;1.17;0.40;;;23.20;40.10;;;;;;5073432;28;20191;-60
2022/11/24 03:47:39;;;;;;;1.50;0.47;;;23.20;40.10;;;;;;5072421;28;20199;-58
2022/11/24 03:50:10;;;;;;;1.05;0.50;;;23.30;40.00;;;;;;5072673;28;20684;-58
2022/11/24 03:52:41;;;;;;;1.33;0.40;;;23.30;39.80;;;;;;5080009;28;20191;-56
2022/11/24 03:55:12;;;;;;;0.55;0.45;;;23.30;39.90;;;;;;5053090;28;20210;-56
2022/11/24 03:57:47;;;;;;;0.70;0.40;;;23.30;40.10;;;;;;5055656;28;20226;-57
2022/11/24 04:00:21;;;;;;;2.33;0.60;;;23.30;40.10;;;;;;5058717;28;20205;-60
2022/11/24 04:02:52;;;;;;;0.82;0.30;;;23.30;40.00;;;;;;5061215;28;20699;-54
2022/11/24 04:05:24;;;;;;;1.63;0.40;;;23.30;40.00;;;;;;5052829;28;20203;-52
2022/11/24 04:08:01;;;;;;;0.63;0.35;;;23.30;40.00;;;;;;5071394;28;20198;-58
2022/11/24 04:10:32;;;;;;;0.93;0.50;;;23.40;40.00;;;;;;5072180;28;20614;-54
2022/11/24 04:13:04;;;;;;;2.97;0.55;;;23.40;40.00;;;;;;5091843;28;20214;-50
2022/11/24 04:15:34;;;;;;;1.30;0.40;;;23.40;40.00;;;;;;5078706;28;20190;-58
2022/11/24 04:18:05;;;;;;;0.70;0.50;;;23.40;40.00;;;;;;5072025;28;20595;-55
2022/11/24 04:20:36;;;;;;;1.17;0.60;;;23.40;39.90;;;;;;5072336;28;20194;-58
2022/11/24 04:23:07;;;;;;;0.82;0.38;;;23.40;39.80;;;;;;5075707;28;20227;-64
2022/11/24 04:25:38;;;;;;;2.50;0.40;;;23.40;39.80;;;;;;5059733;28;20195;-55
2022/11/24 04:28:11;;;;;;;1.45;0.47;;;23.40;39.70;;;;;;5071949;28;20214;-64
2022/11/24 04:30:43;;;;;;;0.80;0.30;;;23.40;39.70;;;;;;5056983;28;20214;-61
2022/11/24 04:33:15;;;;;;;0.65;0.30;;;23.50;39.90;;;;;;5091828;28;20686;-61
2022/11/24 04:35:49;;;;;;;0.50;0.30;;;23.50;39.90;;;;;;5089774;28;20194;-61
2022/11/24 04:38:19;;;;;;;0.47;0.47;;;23.50;39.90;;;;;;5051651;28;20417;-61
2022/11/24 04:40:50;;;;;;;1.85;0.40;;;23.50;39.90;;;;;;5051073;28;20663;-51
2022/11/24 04:43:23;;;;;;;1.30;0.50;;;23.50;39.90;;;;;;5073408;28;20225;-54
2022/11/24 04:45:54;;;;;;;1.05;0.43;;;23.50;39.90;;;;;;5071972;28;20198;-50
2022/11/24 04:48:25;;;;;;;0.80;0.40;;;23.60;39.90;;;;;;5092000;28;20498;-53
2022/11/24 04:50:55;;;;;;;0.75;0.25;;;23.60;39.80;;;;;;5087840;28;20198;-61
2022/11/24 04:53:26;;;;;;;1.13;0.60;;;23.60;39.80;;;;;;5057792;28;20261;-55
2022/11/24 04:55:57;;;;;;;1.15;0.40;;;23.60;39.90;;;;;;5051570;28;20199;-59
2022/11/24 04:58:29;;;;;;;2.47;0.50;;;23.70;40.00;;;;;;5071026;28;20229;-62
2022/11/24 05:01:01;;;;;;;3.08;0.60;;;23.70;40.00;;;;;;5053911;28;20195;-51
2022/11/24 05:03:31;;;;;;;1.10;0.65;;;23.70;39.90;;;;;;5071786;28;20227;-51
2022/11/24 05:06:02;;;;;;;1.83;0.63;;;23.70;39.90;;;;;;5071313;28;20199;-50
2022/11/24 05:08:33;;;;;;;0.93;0.60;;;23.70;39.90;;;;;;5071224;28;20199;-56
2022/11/24 05:11:08;;;;;;;1.40;0.50;;;23.70;39.80;;;;;;5070634;28;20190;-52
2022/11/24 05:13:40;;;;;;;1.58;0.40;;;23.70;39.80;;;;;;5071313;28;20210;-55
2022/11/24 05:16:11;;;;;;;3.67;0.88;;;23.70;39.70;;;;;;5071595;28;20187;-54
2022/11/24 05:18:42;;;;;;;1.20;0.70;;;23.70;40.30;;;;;;5071557;28;20226;-58
2022/11/24 05:21:14;;;;;;;2.13;0.60;;;23.70;39.60;;;;;;5071207;28;20214;-62
2022/11/24 05:23:44;;;;;;;1.10;0.60;;;23.70;39.70;;;;;;5071116;28;20214;-58
2022/11/24 05:26:15;;;;;;;2.25;0.70;;;23.70;39.50;;;;;;5069745;28;20195;-56
2022/11/24 05:28:51;;;;;;;1.45;0.70;;;23.70;39.50;;;;;;5071282;28;20227;-52
2022/11/24 05:31:22;;;;;;;1.35;0.52;;;23.70;39.50;;;;;;5052145;28;20198;-60
2022/11/24 05:33:52;;;;;;;3.38;0.88;;;23.70;39.60;;;;;;5070492;28;20226;-59
2022/11/24 05:39:10;;;;;;;1.23;0.60;;;23.70;39.60;;;;;;5071440;28;20308;-59
2022/11/24 05:41:41;;;;;;;0.95;0.50;;;23.80;39.80;;;;;;5071790;28;20191;-59
2022/11/24 05:44:13;;;;;;;1.42;0.70;;;23.80;39.60;;;;;;5070833;28;20221;-63
2022/11/24 05:46:44;;;;;;;2.20;0.30;;;23.70;39.30;;;;;;5067314;28;20187;-61
2022/11/24 05:49:15;;;;;;;0.30;0.10;;;23.70;37.20;;;;;;5070362;28;20203;-64
2022/11/24 05:51:45;;;;;;;0.95;0.20;;;23.60;35.70;;;;;;5067415;28;20192;-63
2022/11/24 05:54:16;;;;;;;2.17;0.30;;;23.50;35.60;;;;;;5092002;28;20210;-64
2022/11/24 05:56:47;;;;;;;0.65;0.22;;;23.40;35.20;;;;;;5091376;28;20190;-65
2022/11/24 05:59:19;;;;;;;1.48;0.28;;;23.30;35.20;;;;;;5085997;28;20231;-55
2022/11/24 06:01:50;;;;;;;0.80;0.20;;;23.20;35.50;;;;;;5055442;28;20183;-57
2022/11/24 06:04:21;;;;;;;0.65;0.28;;;23.10;36.00;;;;;;5072154;28;20229;-60
2022/11/24 06:06:52;;;;;;;0.85;0.20;;;23.10;36.50;;;;;;5071991;28;20190;-59
2022/11/24 06:09:22;;;;;;;0.98;0.20;;;23.10;36.90;;;;;;5071496;28;20236;-58
2022/11/24 06:11:53;;;;;;;1.13;0.22;;;23.10;37.00;;;;;;5071069;28;20503;-60
2022/11/24 06:14:26;;;;;;;0.73;0.20;;;23.10;37.10;;;;;;5072751;28;20224;-62
2022/11/24 06:16:57;;;;;;;0.52;0.30;;;23.10;37.20;;;;;;5072514;28;20193;-60
2022/11/24 06:19:27;;;;;;;0.30;0.30;;;23.10;37.30;;;;;;5071821;28;20576;-58
2022/11/24 06:21:58;;;;;;;1.55;0.30;;;23.10;37.30;;;;;;5066904;28;20190;-60
2022/11/24 06:24:29;;;;;;;0.80;0.40;;;23.10;37.40;;;;;;5070497;28;20210;-61
2022/11/24 06:26:59;;;;;;;2.17;0.38;;;23.10;37.40;;;;;;5071484;28;20186;-61
2022/11/24 06:29:32;;;;;;;0.40;0.20;;;23.10;37.40;;;;;;5072137;28;20664;-58
2022/11/24 06:32:03;;;;;;;0.55;0.25;;;23.10;37.60;;;;;;5091489;28;20194;-65
2022/11/24 06:34:33;;;;;;;0.32;0.10;;;23.20;37.80;;;;;;5091108;28;20276;-64
2022/11/24 06:37:04;;;;;;;0.43;0.20;;;23.20;37.70;;;;;;5091405;28;20560;-65
2022/11/24 06:39:35;;;;;;;0.80;0.43;;;23.20;37.80;;;;;;5090873;28;20225;-59
2022/11/24 06:42:06;;;;;;;1.67;0.30;;;23.20;37.80;;;;;;5082628;28;20191;-60
2022/11/24 06:44:39;;;;;;;0.60;0.30;;;23.20;37.70;;;;;;5070992;28;20226;-64
2022/11/24 06:47:09;;;;;;;3.20;0.20;;;23.30;37.90;;;;;;5070465;28;20195;-62
2022/11/24 06:49:40;;;;;;;0.38;0.30;;;23.30;38.00;;;;;;5070162;28;20206;-61
2022/11/24 06:52:11;;;;;;;0.40;0.25;;;23.30;37.90;;;;;;5071211;28;20214;-61
2022/11/24 06:54:42;;;;;;;0.45;0.25;;;23.30;37.90;;;;;;5070856;28;20218;-64
2022/11/24 06:57:13;;;;;;;0.68;0.30;;;23.30;37.80;;;;;;5070906;28;20561;-62
2022/11/24 06:59:45;;;;;;;0.20;0.20;;;23.30;38.00;;;;;;5063494;28;20227;-52
2022/11/24 07:02:16;;;;;;;0.80;0.32;;;23.30;38.10;;;;;;5050691;28;20208;-57
2022/11/24 07:04:47;;;;;;;0.77;0.30;;;23.30;38.10;;;;;;5053014;28;20222;-51
2022/11/24 07:07:17;;;;;;;0.35;0.25;;;23.30;38.10;;;;;;5054215;28;20206;-50
2022/11/24 07:09:48;;;;;;;2.00;0.32;;;23.30;38.20;;;;;;5054468;28;20207;-61
2022/11/24 07:12:19;;;;;;;0.88;0.40;;;23.30;38.30;;;;;;5053783;28;20619;-52
2022/11/24 07:14:51;;;;;;;0.35;0.20;;;23.30;38.40;;;;;;5054282;28;20219;-55
2022/11/24 07:17:22;;;;;;;0.75;0.20;;;23.30;38.40;;;;;;5053848;28;20210;-61
2022/11/24 07:19:53;;;;;;;0.50;0.30;;;23.30;38.40;;;;;;5054129;28;20223;-64
2022/11/24 07:22:23;;;;;;;0.80;0.30;;;23.30;38.40;;;;;;5054086;28;20203;-61
2022/11/24 07:24:54;;;;;;;0.28;0.20;;;23.30;38.60;;;;;;5054729;28;20215;-63
2022/11/24 07:27:25;;;;;;;2.10;0.40;;;23.30;38.60;;;;;;5054240;28;20195;-62
2022/11/24 07:29:57;;;;;;;0.93;0.30;;;23.30;38.60;;;;;;5054049;28;20199;-58
2022/11/24 07:32:28;;;;;;;0.50;0.32;;;23.30;38.60;;;;;;5053704;28;20210;-61
2022/11/24 07:34:59;;;;;;;0.57;0.35;;;23.30;38.70;;;;;;5053736;28;20455;-56
2022/11/24 07:37:30;;;;;;;0.35;0.22;;;23.20;38.70;;;;;;5054054;28;20556;-52
2022/11/24 07:40:00;;;;;;;0.73;0.52;;;23.20;38.70;;;;;;5053706;28;20246;-61
2022/11/24 07:42:31;;;;;;;0.28;0.10;;;23.20;38.80;;;;;;5053588;28;20673;-61
2022/11/24 07:45:04;;;;;;;0.20;0.20;;;23.20;38.80;;;;;;5053884;28;20206;-60
2022/11/24 07:47:35;;;;;;;0.60;0.38;;;23.20;38.90;;;;;;5053122;28;20200;-61
2022/11/24 07:50:05;;;;;;;0.63;0.35;;;23.20;38.90;;;;;;5053084;28;20199;-61
2022/11/24 07:52:36;;;;;;;0.65;0.40;;;23.10;38.90;;;;;;5054506;28;20195;-68
2022/11/24 07:55:08;;;;;;;0.60;0.20;;;23.10;39.00;;;;;;5072763;28;20193;-64
2022/11/24 07:57:39;;;;;;;0.20;0.20;;;23.10;39.00;;;;;;5073935;28;20240;-60
2022/11/24 08:00:13;;;;;;;0.40;0.30;;;23.10;39.10;;;;;;5062560;28;20231;-63
2022/11/24 08:02:44;;;;;;;0.70;0.40;;;23.10;39.10;;;;;;5053253;28;20265;-60
2022/11/24 08:05:15;;;;;;;1.02;0.20;;;23.10;39.20;;;;;;5052893;28;20618;-58
2022/11/24 08:07:46;;;;;;;0.85;0.30;;;23.10;39.20;;;;;;5053098;28;20231;-67
2022/11/24 08:10:16;;;;;;;0.60;0.30;;;23.10;39.20;;;;;;5053114;28;20204;-61
2022/11/24 08:12:47;;;;;;;1.42;0.30;;;23.10;39.30;;;;;;5053100;28;20203;-66
2022/11/24 08:15:20;;;;;;;0.50;0.30;;;23.10;39.30;;;;;;5054383;28;20204;-62
2022/11/24 08:17:51;;;;;;;0.52;0.30;;;23.10;39.40;;;;;;5052856;28;20203;-57
2022/11/24 08:20:22;;;;;;;0.52;0.40;;;23.00;39.40;;;;;;5052624;28;20306;-69
2022/11/24 08:22:53;;;;;;;0.63;0.30;;;23.00;39.50;;;;;;5053103;28;20591;-67
2022/11/24 08:25:25;;;;;;;1.77;0.40;;;23.00;39.50;;;;;;5053339;28;20202;-64
2022/11/24 08:27:56;;;;;;;0.73;0.32;;;23.00;39.50;;;;;;5052867;28;20196;-66
2022/11/24 08:30:29;;;;;;;0.80;0.35;;;23.00;39.50;;;;;;5052790;28;20199;-63
2022/11/24 08:33:01;;;;;;;1.48;0.40;;;23.00;39.60;;;;;;5053009;28;20226;-60
2022/11/24 08:35:32;;;;;;;1.65;0.50;;;23.00;39.60;;;;;;5052840;28;20675;-67
2022/11/24 08:38:03;;;;;;;0.32;0.30;;;22.90;39.60;;;;;;5052535;28;20199;-56
2022/11/24 08:40:34;;;;;;;0.77;0.30;;;22.90;39.70;;;;;;5052641;28;20233;-69
2022/11/24 08:43:04;;;;;;;0.70;0.45;;;22.90;39.70;;;;;;5052615;28;20215;-66
2022/11/24 08:45:37;;;;;;;0.80;0.45;;;22.90;39.80;;;;;;5052426;28;20196;-69
2022/11/24 08:48:08;;;;;;;0.43;0.30;;;22.90;39.90;;;;;;5051933;28;20199;-68
2022/11/24 08:50:39;;;;;;;0.43;0.40;;;22.80;39.90;;;;;;5067688;28;20191;-69
2022/11/24 08:53:10;;;;;;;1.00;0.43;;;22.80;40.00;;;;;;5072208;28;20218;-66
2022/11/24 08:55:41;;;;;;;1.00;0.40;;;22.80;40.00;;;;;;5072262;28;20812;-66
2022/11/24 08:58:12;;;;;;;0.57;0.35;;;22.70;40.10;;;;;;5072418;28;20202;-55
2022/11/24 09:00:44;;;;;;;1.40;0.45;;;22.80;40.20;;;;;;5056683;28;20242;-63
2022/11/24 09:03:15;;;;;;;1.25;0.50;;;22.70;40.10;;;;;;5051408;28;20707;-61
2022/11/24 09:05:46;;;;;;;0.98;0.43;;;22.70;40.90;;;;;;5051749;28;20195;-54
2022/11/24 09:08:17;;;;;;;1.85;0.75;;;22.70;40.40;;;;;;5049720;28;20211;-65
2022/11/24 09:10:47;;;;;;;1.83;0.70;;;22.70;40.50;;;;;;5063057;28;20202;-66
2022/11/24 09:13:18;;;;;;;1.08;0.57;;;22.70;40.60;;;;;;5067501;28;20247;-65
2022/11/24 09:15:51;;;;;;;1.15;0.60;;;22.70;40.70;;;;;;5052464;28;20195;-63
2022/11/24 09:18:21;;;;;;;1.42;0.60;;;22.60;40.70;;;;;;5060851;28;20661;-54
2022/11/24 09:20:56;;;;;;;0.90;0.60;;;22.60;40.80;;;;;;5070540;28;20233;-61
2022/11/24 09:23:26;;;;;;;1.10;0.70;;;22.60;40.80;;;;;;5071251;28;20296;-51
2022/11/24 09:26:03;;;;;;;2.28;0.70;;;22.60;40.80;;;;;;5066749;28;20681;-62
2022/11/24 09:28:34;;;;;;;1.48;0.80;;;22.60;40.90;;;;;;5062216;28;20646;-65
2022/11/24 09:31:08;;;;;;;1.70;0.57;;;22.50;40.90;;;;;;5052710;28;20203;-65
2022/11/24 09:33:40;;;;;;;1.70;0.70;;;22.50;40.90;;;;;;5062405;28;20213;-65
2022/11/24 09:36:11;;;;;;;1.33;0.70;;;22.50;41.00;;;;;;5070798;28;20203;-60
2022/11/24 09:38:42;;;;;;;1.52;0.70;;;22.50;41.00;;;;;;5070799;28;20195;-63
2022/11/24 09:41:35;;;;;;;1.73;0.70;;;22.50;41.10;;;;;;5071408;28;20397;-65
2022/11/24 09:44:19;;;;;;;0.98;0.60;;;22.40;41.10;;;;;;5066996;28;20219;-64
2022/11/24 09:47:04;;;;;;;3.15;0.80;;;22.40;41.10;;;;;;5070913;28;20195;-65
2022/11/24 09:49:39;;;;;;;1.75;0.70;;;22.40;41.10;;;;;;5070793;28;20237;-65
2022/11/24 09:52:15;;;;;;;1.88;0.90;;;22.40;41.10;;;;;;5070174;28;20685;-65
2022/11/24 09:54:55;;;;;;;1.48;0.52;;;22.40;41.10;;;;;;5054574;28;20686;-50
2022/11/24 09:57:28;;;;;;;2.25;0.60;;;22.40;41.20;;;;;;5049835;28;20682;-50
2022/11/24 10:00:15;;;;;;;1.52;0.63;;;22.40;41.20;;;;;;5050250;28;20599;-56
2022/11/24 10:02:51;;;;;;;3.17;0.80;;;22.30;41.20;;;;;;5056731;28;20233;-55
2022/11/24 10:05:22;;;;;;;1.48;0.52;;;22.30;41.20;;;;;;5070966;28;20198;-56
2022/11/24 10:08:04;;;;;;;1.80;0.55;;;22.30;41.30;;;;;;5065659;28;20655;-64
2022/11/24 10:10:46;;;;;;;1.73;0.82;;;22.20;41.30;;;;;;5050598;28;20229;-57
2022/11/24 10:13:32;;;;;;;1.77;0.60;;;22.20;41.30;;;;;;5062329;28;20685;-62
2022/11/24 10:16:12;;;;;;;0.98;0.60;;;22.20;41.40;;;;;;5091242;28;20190;-59
2022/11/24 10:18:57;;;;;;;1.95;0.63;;;22.20;41.40;;;;;;5091115;28;20220;-57
2022/11/24 10:21:46;;;;;;;1.63;0.85;;;22.20;41.50;;;;;;5090986;28;20226;-55
2022/11/24 10:24:45;;;;;;;1.35;0.70;;;22.10;41.50;;;;;;5090958;28;20226;-56
2022/11/24 10:27:19;;;;;;;2.75;0.65;;;22.10;41.50;;;;;;5090932;28;20194;-54
2022/11/24 10:29:53;;;;;;;1.65;0.63;;;22.20;41.50;;;;;;5075214;28;20566;-54
2022/11/24 10:32:28;;;;;;;1.83;0.68;;;22.10;41.50;;;;;;5050968;28;20210;-55
2022/11/24 10:35:16;;;;;;;2.08;0.70;;;22.10;41.50;;;;;;5050488;28;20566;-58
2022/11/24 10:37:55;;;;;;;1.88;0.60;;;22.10;41.60;;;;;;5050499;28;20206;-55
2022/11/24 10:40:36;;;;;;;1.38;0.60;;;22.10;41.60;;;;;;5054757;28;20234;-54
2022/11/24 10:43:09;;;;;;;2.38;0.68;;;22.00;41.60;;;;;;5054756;28;20214;-58
2022/11/24 10:45:40;;;;;;;1.80;0.85;;;22.00;41.60;;;;;;5054885;28;20674;-55
2022/11/24 10:48:19;;;;;;;1.15;0.50;;;22.00;41.70;;;;;;5054841;28;20230;-57
2022/11/24 10:50:54;;;;;;;1.35;0.60;;;22.00;41.80;;;;;;5054875;28;20206;-58
2022/11/24 10:53:28;;;;;;;1.08;0.43;;;21.90;41.70;;;;;;5054797;28;20222;-56
2022/11/24 10:56:04;;;;;;;1.15;0.50;;;21.90;41.80;;;;;;5054753;28;20198;-58
2022/11/24 10:58:36;;;;;;;1.27;0.70;;;21.90;41.80;;;;;;5068517;28;20281;-60
2022/11/24 11:01:29;;;;;;;2.97;0.70;;;21.90;41.90;;;;;;5056045;28;20227;-60
2022/11/24 11:04:01;;;;;;;2.80;0.90;;;21.90;41.90;;;;;;5054239;28;20246;-58
2022/11/24 11:06:36;;;;;;;1.92;0.93;;;21.90;41.90;;;;;;5054470;28;20246;-58
2022/11/24 11:09:30;;;;;;;0.65;0.40;;;21.90;41.90;;;;;;5054569;28;20605;-57
2022/11/24 11:12:12;;;;;;;1.38;0.60;;;21.80;41.90;;;;;;5049258;28;20199;-58
2022/11/24 11:14:43;;;;;;;0.70;0.60;;;21.90;41.90;;;;;;5054802;28;20219;-55
2022/11/24 11:17:36;;;;;;;2.28;0.85;;;21.80;41.90;;;;;;5053720;28;20241;-54
2022/11/24 11:20:17;;;;;;;2.40;0.70;;;21.80;42.00;;;;;;5053952;28;20219;-60
2022/11/24 11:22:52;;;;;;;1.20;0.70;;;21.80;42.00;;;;;;5054425;28;20230;-56
2022/11/24 11:25:25;;;;;;;1.73;0.70;;;21.80;42.00;;;;;;5054256;28;20206;-55
2022/11/24 11:28:20;;;;;;;0.98;0.70;;;21.70;42.10;;;;;;5053963;28;20655;-58
2022/11/24 11:31:01;;;;;;;1.30;0.60;;;21.70;42.10;;;;;;5053922;28;20200;-60
2022/11/24 11:33:32;;;;;;;1.25;0.60;;;21.70;42.20;;;;;;5053897;28;20218;-58
2022/11/24 11:36:09;;;;;;;1.05;0.60;;;21.70;42.20;;;;;;5053911;28;20206;-59
2022/11/24 11:38:47;;;;;;;1.17;0.68;;;21.70;42.20;;;;;;5054166;28;20203;-56
2022/11/24 11:41:25;;;;;;;0.77;0.40;;;21.70;42.30;;;;;;5053924;28;20234;-52
2022/11/24 11:44:07;;;;;;;1.30;0.70;;;21.70;42.30;;;;;;5053717;28;20374;-53
2022/11/24 11:46:38;;;;;;;1.08;0.65;;;21.60;42.30;;;;;;5053667;28;20590;-52
2022/11/24 11:49:11;;;;;;;1.52;0.60;;;21.60;42.30;;;;;;5052909;28;20191;-55
2022/11/24 11:52:16;;;;;;;1.08;0.70;;;21.60;42.40;;;;;;5068277;28;20194;-52
2022/11/24 11:55:18;;;;;;;1.85;0.77;;;21.60;42.40;;;;;;5073688;28;20221;-60
2022/11/24 11:57:58;;;;;;;1.30;0.70;;;21.50;42.40;;;;;;5066680;28;20200;-56
2022/11/24 12:00:31;;;;;;;1.10;0.60;;;21.50;42.50;;;;;;5060060;28;20222;-56
2022/11/24 12:03:20;;;;;;;1.17;0.60;;;21.50;42.60;;;;;;5055505;28;20220;-54
2022/11/24 12:06:00;;;;;;;0.75;0.50;;;21.50;42.60;;;;;;5052995;28;20196;-52
2022/11/24 12:08:41;;;;;;;0.93;0.50;;;21.50;42.70;;;;;;5053425;28;20277;-57
2022/11/24 12:11:19;;;;;;;1.27;0.70;;;21.40;42.80;;;;;;5053410;28;20666;-51
2022/11/24 12:14:06;;;;;;;1.40;0.70;;;21.40;42.80;;;;;;5053349;28;20219;-56
2022/11/24 12:16:46;;;;;;;1.05;0.60;;;21.40;42.90;;;;;;5053585;28;20210;-55
2022/11/24 12:19:32;;;;;;;0.80;0.50;;;21.30;42.80;;;;;;5053175;28;20199;-55
2022/11/24 12:22:11;;;;;;;0.50;0.50;;;21.30;42.80;;;;;;5053214;28;20309;-57
2022/11/24 12:24:50;;;;;;;0.70;0.50;;;21.30;42.90;;;;;;5053192;28;20218;-53
2022/11/24 12:27:33;;;;;;;0.60;0.50;;;21.30;42.90;;;;;;5053434;28;20199;-53
2022/11/24 12:30:14;;;;;;;2.63;0.60;;;21.30;42.90;;;;;;5053019;28;20196;-57
2022/11/24 12:33:10;;;;;;;0.70;0.50;;;21.20;43.00;;;;;;5052985;28;20206;-54
2022/11/24 12:35:44;;;;;;;1.73;0.60;;;21.20;43.00;;;;;;5052937;28;20245;-56
2022/11/24 12:38:29;;;;;;;0.98;0.65;;;21.20;43.10;;;;;;5052698;28;20200;-54
2022/11/24 12:41:22;;;;;;;1.33;0.43;;;21.20;43.20;;;;;;5052832;28;20223;-54
2022/11/24 12:43:54;;;;;;;0.90;0.50;;;21.20;43.20;;;;;;5052872;28;20305;-59
2022/11/24 12:46:36;;;;;;;1.13;0.60;;;21.10;43.20;;;;;;5052960;28;20535;-56
2022/11/24 12:49:16;;;;;;;1.23;0.50;;;21.10;43.20;;;;;;5052166;28;20196;-53
2022/11/24 12:51:50;;;;;;;1.08;0.40;;;21.10;43.30;;;;;;5052924;28;20199;-53
2022/11/24 12:54:24;;;;;;;0.60;0.47;;;21.10;43.20;;;;;;5052183;28;20706;-51
2022/11/24 12:57:01;;;;;;;0.80;0.40;;;21.00;43.20;;;;;;5052365;28;20218;-52
2022/11/24 12:59:42;;;;;;;0.88;0.50;;;21.10;43.30;;;;;;5061511;28;20202;-52
2022/11/24 13:02:25;;;;;;;0.75;0.50;;;21.10;43.30;;;;;;5051421;28;20296;-52
2022/11/24 13:05:03;;;;;;;0.88;0.50;;;21.00;43.30;;;;;;5052079;28;20214;-52
2022/11/24 13:07:47;;;;;;;0.57;0.43;;;21.00;43.30;;;;;;5052299;28;20202;-54
2022/11/24 13:10:40;;;;;;;0.82;0.60;;;20.90;43.30;;;;;;5051974;28;20253;-57
2022/11/24 13:13:12;;;;;;;0.40;0.40;;;20.90;43.40;;;;;;5052278;28;20230;-54
2022/11/24 13:16:14;;;;;;;0.70;0.40;;;21.00;43.40;;;;;;5052455;28;20199;-54
2022/11/24 13:18:56;;;;;;;1.02;0.52;;;20.90;43.40;;;;;;5048411;28;20213;-60
2022/11/24 13:21:51;;;;;;;0.68;0.50;;;20.90;43.40;;;;;;5051421;28;20227;-56
2022/11/24 13:24:29;;;;;;;1.00;0.50;;;20.90;43.40;;;;;;5050497;28;20640;-60
2022/11/24 13:27:28;;;;;;;1.00;0.40;;;20.90;43.50;;;;;;5051396;28;20214;-57
2022/11/24 13:29:59;;;;;;;0.55;0.50;;;20.80;43.50;;;;;;5051441;28;20207;-52